Time,TemperatureF,DewpointF,PressureIn,WindDirection,WindDirectionDegrees,WindSpeedMPH,WindSpeedGustMPH,Humidity,HourlyPrecipIn,Conditions,Clouds,dailyrainin,SoftwareType,DateUTC
2013-07-08 00:00:00,78.0,74.0,-100.00,SW,220,16.0,18.0,85,-99.99,,,-99.99,,2013-07-08 04:00:00,
2013-07-08 00:33:00,79.0,74.0,-100.00,SSW,210,13.0,18.0,84,-99.99,,,-99.99,,2013-07-08 04:33:00,
2013-07-08 00:42:00,78.0,74.0,-100.00,SW,220,16.0,18.0,85,-99.99,,,-99.99,,2013-07-08 04:42:00,
2013-07-08 00:52:00,78.0,74.0,-100.00,SW,220,16.0,18.0,85,-99.99,,,-99.99,,2013-07-08 04:52:00,
2013-07-08 01:00:00,79.0,73.0,-100.00,WSW,240,20.0,25.0,82,-99.99,,,-99.99,,2013-07-08 05:00:00,
2013-07-08 01:11:00,78.0,74.0,-100.00,SW,230,16.0,18.0,86,-99.99,,,-99.99,,2013-07-08 05:11:00,
2013-07-08 01:21:00,78.0,74.0,-100.00,SW,230,16.0,18.0,86,-99.99,,,-99.99,,2013-07-08 05:21:00,
2013-07-08 01:33:00,79.0,74.0,-100.00,SW,230,18.0,25.0,85,-99.99,,,-99.99,,2013-07-08 05:33:00,
2013-07-08 01:43:00,79.0,73.0,-100.00,WSW,240,20.0,25.0,82,-99.99,,,-99.99,,2013-07-08 05:43:00,
2013-07-08 01:53:00,79.0,73.0,-100.00,WSW,240,20.0,25.0,82,-99.99,,,-99.99,,2013-07-08 05:53:00,
2013-07-08 02:00:00,78.0,71.0,-100.00,WSW,240,16.0,18.0,78,-99.99,,,-99.99,,2013-07-08 06:00:00,
2013-07-08 02:11:00,79.0,71.0,-100.00,WSW,250,18.0,20.0,78,-99.99,,,-99.99,,2013-07-08 06:11:00,
2013-07-08 02:22:00,79.0,71.0,-100.00,WSW,250,18.0,20.0,78,-99.99,,,-99.99,,2013-07-08 06:22:00,
2013-07-08 02:33:00,78.0,71.0,-100.00,WSW,240,18.0,20.0,77,-99.99,,,-99.99,,2013-07-08 06:33:00,
2013-07-08 02:42:00,78.0,71.0,-100.00,WSW,240,16.0,18.0,78,-99.99,,,-99.99,,2013-07-08 06:42:00,
2013-07-08 02:52:00,78.0,71.0,-100.00,WSW,240,16.0,18.0,78,-99.99,,,-99.99,,2013-07-08 06:52:00,
2013-07-08 03:00:00,78.0,70.0,-100.00,WSW,240,16.0,20.0,76,-99.99,,,-99.99,,2013-07-08 07:00:00,
2013-07-08 03:11:00,78.0,70.0,-100.00,WSW,240,18.0,20.0,76,-99.99,,,-99.99,,2013-07-08 07:11:00,
2013-07-08 03:22:00,78.0,70.0,-100.00,WSW,240,18.0,20.0,76,-99.99,,,-99.99,,2013-07-08 07:22:00,
2013-07-08 03:34:00,78.0,70.0,-100.00,WSW,240,18.0,20.0,76,-99.99,,,-99.99,,2013-07-08 07:34:00,
2013-07-08 03:44:00,78.0,70.0,-100.00,WSW,240,16.0,20.0,76,-99.99,,,-99.99,,2013-07-08 07:44:00,
2013-07-08 03:52:00,78.0,70.0,-100.00,WSW,240,16.0,20.0,76,-99.99,,,-99.99,,2013-07-08 07:52:00,
2013-07-08 05:00:00,76.0,69.0,-100.00,WSW,240,16.0,18.0,78,-99.99,,,-99.99,,2013-07-08 09:00:00,
2013-07-08 05:43:00,76.0,69.0,-100.00,WSW,240,16.0,18.0,78,-99.99,,,-99.99,,2013-07-08 09:43:00,
2013-07-08 05:52:00,76.0,69.0,-100.00,WSW,240,16.0,18.0,78,-99.99,,,-99.99,,2013-07-08 09:52:00,
2013-07-08 06:00:00,75.0,70.0,-100.00,WSW,240,18.0,22.0,82,-99.99,,,-99.99,,2013-07-08 10:00:00,
2013-07-08 06:34:00,75.0,70.0,-100.00,WSW,240,13.0,18.0,84,-99.99,,,-99.99,,2013-07-08 10:34:00,
2013-07-08 06:43:00,75.0,70.0,-100.00,WSW,240,18.0,22.0,82,-99.99,,,-99.99,,2013-07-08 10:43:00,
2013-07-08 06:53:00,75.0,70.0,-100.00,WSW,240,18.0,22.0,82,-99.99,,,-99.99,,2013-07-08 10:53:00,
2013-07-08 07:00:00,75.0,69.0,-100.00,WSW,250,18.0,20.0,83,-99.99,,,-99.99,,2013-07-08 11:00:00,
2013-07-08 07:11:00,75.0,69.0,-100.00,WSW,250,18.0,22.0,82,-99.99,,,-99.99,,2013-07-08 11:11:00,
2013-07-08 07:22:00,75.0,69.0,-100.00,WSW,250,18.0,22.0,82,-99.99,,,-99.99,,2013-07-08 11:22:00,
2013-07-08 07:33:00,75.0,69.0,-100.00,WSW,250,18.0,20.0,82,-99.99,,,-99.99,,2013-07-08 11:33:00,
2013-07-08 07:43:00,75.0,69.0,-100.00,WSW,250,18.0,20.0,83,-99.99,,,-99.99,,2013-07-08 11:43:00,
2013-07-08 07:52:00,75.0,69.0,-100.00,WSW,250,18.0,20.0,83,-99.99,,,-99.99,,2013-07-08 11:52:00,
2013-07-08 08:00:00,74.0,69.0,-100.00,WSW,250,16.0,20.0,85,-99.99,,,-99.99,,2013-07-08 12:00:00,
2013-07-08 08:30:00,74.0,69.0,-100.00,West,260,16.0,20.0,86,-99.99,,,-99.99,,2013-07-08 12:30:00,
2013-07-08 08:33:00,74.0,69.0,-100.00,WSW,250,18.0,22.0,84,-99.99,,,-99.99,,2013-07-08 12:33:00,
2013-07-08 08:43:00,74.0,69.0,-100.00,WSW,250,16.0,20.0,85,-99.99,,,-99.99,,2013-07-08 12:43:00,
2013-07-08 08:53:00,74.0,69.0,-100.00,WSW,250,16.0,20.0,85,-99.99,,,-99.99,,2013-07-08 12:53:00,
2013-07-08 09:00:00,74.0,69.0,-100.00,West,260,16.0,20.0,86,-99.99,,,-99.99,,2013-07-08 13:00:00,
2013-07-08 09:11:00,74.0,69.0,-100.00,West,260,16.0,20.0,86,-99.99,,,-99.99,,2013-07-08 13:11:00,
2013-07-08 09:22:00,74.0,69.0,-100.00,West,260,16.0,20.0,86,-99.99,,,-99.99,,2013-07-08 13:22:00,
2013-07-08 09:42:00,74.0,69.0,-100.00,West,260,16.0,20.0,86,-99.99,,,-99.99,,2013-07-08 13:42:00,
2013-07-08 09:53:00,74.0,69.0,-100.00,West,260,16.0,20.0,86,-99.99,,,-99.99,,2013-07-08 13:53:00,
2013-07-08 10:00:00,74.0,70.0,-100.00,West,260,16.0,18.0,86,-99.99,,,-99.99,,2013-07-08 14:00:00,
2013-07-08 10:12:00,74.0,69.0,-100.00,West,260,16.0,18.0,86,-99.99,,,-99.99,,2013-07-08 14:12:00,
2013-07-08 10:22:00,74.0,69.0,-100.00,West,260,16.0,18.0,86,-99.99,,,-99.99,,2013-07-08 14:22:00,
2013-07-08 10:30:00,74.0,70.0,-100.00,WSW,250,13.0,18.0,86,-99.99,,,-99.99,,2013-07-08 14:30:00,
2013-07-08 10:33:00,74.0,70.0,-100.00,West,260,16.0,18.0,86,-99.99,,,-99.99,,2013-07-08 14:33:00,
2013-07-08 10:43:00,74.0,70.0,-100.00,West,260,16.0,18.0,86,-99.99,,,-99.99,,2013-07-08 14:43:00,
2013-07-08 10:53:00,74.0,70.0,-100.00,West,260,16.0,18.0,86,-99.99,,,-99.99,,2013-07-08 14:53:00,
2013-07-08 11:11:00,74.0,70.0,-100.00,WSW,250,13.0,18.0,86,-99.99,,,-99.99,,2013-07-08 15:11:00,
2013-07-08 11:22:00,74.0,70.0,-100.00,WSW,250,13.0,18.0,86,-99.99,,,-99.99,,2013-07-08 15:22:00,
2013-07-08 11:53:00,75.0,71.0,-100.00,WSW,240,13.0,16.0,86,-99.99,,,-99.99,,2013-07-08 15:53:00,
2013-07-08 12:01:00,75.0,71.0,-100.00,WSW,240,13.0,16.0,86,-99.99,,,-99.99,,2013-07-08 16:01:00,
2013-07-08 12:11:00,75.0,71.0,-100.00,WSW,240,13.0,16.0,86,-99.99,,,-99.99,,2013-07-08 16:11:00,
2013-07-08 12:30:00,76.0,71.0,-100.00,SW,230,9.0,11.0,84,-99.99,,,-99.99,,2013-07-08 16:30:00,
2013-07-08 12:43:00,76.0,71.0,-100.00,WSW,240,11.0,13.0,84,-99.99,,,-99.99,,2013-07-08 16:43:00,
2013-07-08 12:52:00,76.0,71.0,-100.00,WSW,240,11.0,13.0,84,-99.99,,,-99.99,,2013-07-08 16:52:00,
2013-07-08 13:00:00,76.0,71.0,-100.00,SW,230,9.0,11.0,85,-99.99,,,-99.99,,2013-07-08 17:00:00,
2013-07-08 13:01:00,76.0,71.0,-100.00,WSW,240,11.0,13.0,84,-99.99,,,-99.99,,2013-07-08 17:01:00,
2013-07-08 13:11:00,76.0,71.0,-100.00,SW,230,9.0,11.0,84,-99.99,,,-99.99,,2013-07-08 17:11:00,
2013-07-08 13:22:00,76.0,71.0,-100.00,SW,230,9.0,11.0,84,-99.99,,,-99.99,,2013-07-08 17:22:00,
2013-07-08 13:43:00,76.0,71.0,-100.00,SW,230,9.0,11.0,85,-99.99,,,-99.99,,2013-07-08 17:43:00,
2013-07-08 13:53:00,76.0,71.0,-100.00,SW,230,9.0,11.0,85,-99.99,,,-99.99,,2013-07-08 17:53:00,
2013-07-08 15:11:00,78.0,71.0,-100.00,WSW,240,11.0,13.0,78,-99.99,,,-99.99,,2013-07-08 19:11:00,
2013-07-08 15:21:00,78.0,71.0,-100.00,WSW,240,11.0,13.0,78,-99.99,,,-99.99,,2013-07-08 19:21:00,
2013-07-08 15:52:00,79.0,69.0,-100.00,WSW,240,13.0,16.0,71,-99.99,,,-99.99,,2013-07-08 19:52:00,
2013-07-08 16:00:00,80.0,70.0,-100.00,WSW,240,9.0,11.0,71,-99.99,,,-99.99,,2013-07-08 20:00:00,
2013-07-08 16:22:00,80.0,69.0,-100.00,WSW,240,11.0,13.0,71,-99.99,,,-99.99,,2013-07-08 20:22:00,
2013-07-08 16:30:00,79.0,71.0,-100.00,SW,230,9.0,11.0,75,-99.99,,,-99.99,,2013-07-08 20:30:00,
2013-07-08 17:11:00,79.0,71.0,-100.00,SW,230,9.0,11.0,75,-99.99,,,-99.99,,2013-07-08 21:11:00,
2013-07-08 17:42:00,80.0,71.0,-100.00,SW,220,9.0,13.0,74,-99.99,,,-99.99,,2013-07-08 21:42:00,
2013-07-08 18:22:00,80.0,73.0,-100.00,South,190,9.0,9.0,80,-99.99,,,-99.99,,2013-07-08 22:22:00,
2013-07-08 18:32:00,80.0,73.0,-100.00,South,190,9.0,9.0,80,-99.99,,,-99.99,,2013-07-08 22:32:00,
2013-07-08 18:43:00,80.0,73.0,-100.00,South,190,9.0,9.0,80,-99.99,,,-99.99,,2013-07-08 22:43:00,
2013-07-08 21:00:00,-999.0,-99.9,-100.00,SW,220,11.0,16.0,83,-99.99,,,-99.99,,2013-07-09 01:00:00,
2013-07-08 23:11:00,77.0,72.0,-100.00,SW,220,11.0,13.0,83,-99.99,,,-99.99,,2013-07-09 03:11:00,
2013-07-08 23:30:00,77.0,71.0,-100.00,SW,230,11.0,13.0,80,-99.99,,,-99.99,,2013-07-09 03:30:00,
2013-07-08 23:43:00,77.0,71.0,-100.00,SW,230,13.0,16.0,80,-99.99,,,-99.99,,2013-07-09 03:43:00,
2013-07-08 23:53:00,77.0,71.0,-100.00,SW,230,13.0,16.0,80,-99.99,,,-99.99,,2013-07-09 03:53:00,